sensor_id;sensor_type;location;lat;lon;timestamp;P1;durP1;ratioP1;P2;durP2;ratioP2
31306;SDS011;17935;51.120;13.132;2023-04-21T00:01:27;239.90;;;72.95;;
31306;SDS011;17935;51.120;13.132;2023-04-21T00:03:53;233.43;;;71.32;;
31306;SDS011;17935;51.120;13.132;2023-04-21T00:06:19;238.27;;;73.13;;
31306;SDS011;17935;51.120;13.132;2023-04-21T00:08:47;244.30;;;69.88;;
31306;SDS011;17935;51.120;13.132;2023-04-21T00:11:13;255.30;;;73.63;;
31306;SDS011;17935;51.120;13.132;2023-04-21T00:13:39;218.25;;;66.50;;
31306;SDS011;17935;51.120;13.132;2023-04-21T00:16:05;212.15;;;64.88;;
31306;SDS011;17935;51.120;13.132;2023-04-21T00:18:31;205.95;;;64.53;;
31306;SDS011;17935;51.120;13.132;2023-04-21T00:20:57;176.07;;;57.35;;
31306;SDS011;17935;51.120;13.132;2023-04-21T00:23:23;181.00;;;55.00;;
31306;SDS011;17935;51.120;13.132;2023-04-21T00:25:49;188.55;;;61.15;;
31306;SDS011;17935;51.120;13.132;2023-04-21T00:28:16;207.35;;;66.35;;
31306;SDS011;17935;51.120;13.132;2023-04-21T00:30:42;216.38;;;62.42;;
31306;SDS011;17935;51.120;13.132;2023-04-21T00:33:08;219.80;;;64.15;;
31306;SDS011;17935;51.120;13.132;2023-04-21T00:35:34;219.70;;;63.22;;
31306;SDS011;17935;51.120;13.132;2023-04-21T00:38:00;196.07;;;62.70;;
31306;SDS011;17935;51.120;13.132;2023-04-21T00:40:25;200.55;;;60.35;;
31306;SDS011;17935;51.120;13.132;2023-04-21T00:42:52;193.75;;;60.22;;
31306;SDS011;17935;51.120;13.132;2023-04-21T00:45:17;207.85;;;60.97;;
31306;SDS011;17935;51.120;13.132;2023-04-21T00:47:43;226.85;;;66.13;;
31306;SDS011;17935;51.120;13.132;2023-04-21T00:50:10;269.67;;;75.32;;
31306;SDS011;17935;51.120;13.132;2023-04-21T00:52:38;284.75;;;78.28;;
31306;SDS011;17935;51.120;13.132;2023-04-21T00:55:04;282.40;;;76.88;;
31306;SDS011;17935;51.120;13.132;2023-04-21T00:57:30;273.65;;;76.30;;
31306;SDS011;17935;51.120;13.132;2023-04-21T00:59:56;271.67;;;77.57;;
31306;SDS011;17935;51.120;13.132;2023-04-21T01:02:22;275.55;;;76.78;;
31306;SDS011;17935;51.120;13.132;2023-04-21T01:04:48;299.33;;;81.32;;
31306;SDS011;17935;51.120;13.132;2023-04-21T01:07:14;281.88;;;78.65;;
31306;SDS011;17935;51.120;13.132;2023-04-21T01:09:40;286.15;;;80.72;;
31306;SDS011;17935;51.120;13.132;2023-04-21T01:12:07;300.40;;;81.35;;
31306;SDS011;17935;51.120;13.132;2023-04-21T01:14:34;301.60;;;84.18;;
31306;SDS011;17935;51.120;13.132;2023-04-21T01:17:00;295.05;;;81.40;;
31306;SDS011;17935;51.120;13.132;2023-04-21T01:19:29;300.45;;;79.85;;
31306;SDS011;17935;51.120;13.132;2023-04-21T01:21:56;278.75;;;77.20;;
31306;SDS011;17935;51.120;13.132;2023-04-21T01:24:29;277.83;;;78.32;;
31306;SDS011;17935;51.120;13.132;2023-04-21T01:27:00;275.17;;;79.32;;
31306;SDS011;17935;51.120;13.132;2023-04-21T01:29:25;242.52;;;70.95;;
31306;SDS011;17935;51.120;13.132;2023-04-21T01:31:51;244.63;;;72.88;;
31306;SDS011;17935;51.120;13.132;2023-04-21T01:34:17;247.00;;;69.80;;
31306;SDS011;17935;51.120;13.132;2023-04-21T01:36:43;232.57;;;67.20;;
31306;SDS011;17935;51.120;13.132;2023-04-21T01:39:09;254.20;;;76.97;;
31306;SDS011;17935;51.120;13.132;2023-04-21T01:41:35;251.15;;;74.63;;
31306;SDS011;17935;51.120;13.132;2023-04-21T01:44:01;265.90;;;75.50;;
31306;SDS011;17935;51.120;13.132;2023-04-21T01:46:27;278.75;;;80.50;;
31306;SDS011;17935;51.120;13.132;2023-04-21T01:48:53;271.42;;;76.80;;
31306;SDS011;17935;51.120;13.132;2023-04-21T01:51:19;270.90;;;73.57;;
31306;SDS011;17935;51.120;13.132;2023-04-21T01:53:45;285.48;;;74.68;;
31306;SDS011;17935;51.120;13.132;2023-04-21T01:56:12;316.15;;;85.10;;
31306;SDS011;17935;51.120;13.132;2023-04-21T01:58:38;293.27;;;80.10;;
31306;SDS011;17935;51.120;13.132;2023-04-21T02:01:04;326.27;;;84.75;;
31306;SDS011;17935;51.120;13.132;2023-04-21T02:03:30;316.48;;;84.40;;
31306;SDS011;17935;51.120;13.132;2023-04-21T02:05:56;335.83;;;86.80;;
31306;SDS011;17935;51.120;13.132;2023-04-21T02:08:22;341.23;;;89.70;;
31306;SDS011;17935;51.120;13.132;2023-04-21T02:10:48;342.80;;;90.88;;
31306;SDS011;17935;51.120;13.132;2023-04-21T02:13:13;324.88;;;90.00;;
31306;SDS011;17935;51.120;13.132;2023-04-21T02:15:39;358.10;;;94.18;;
31306;SDS011;17935;51.120;13.132;2023-04-21T02:18:05;341.42;;;92.70;;
31306;SDS011;17935;51.120;13.132;2023-04-21T02:20:32;345.27;;;92.53;;
31306;SDS011;17935;51.120;13.132;2023-04-21T02:22:58;354.02;;;96.07;;
31306;SDS011;17935;51.120;13.132;2023-04-21T02:25:24;348.85;;;91.53;;
31306;SDS011;17935;51.120;13.132;2023-04-21T02:27:49;315.35;;;84.53;;
31306;SDS011;17935;51.120;13.132;2023-04-21T02:30:15;251.85;;;69.35;;
31306;SDS011;17935;51.120;13.132;2023-04-21T02:32:41;264.73;;;70.80;;
31306;SDS011;17935;51.120;13.132;2023-04-21T02:35:07;261.05;;;72.68;;
31306;SDS011;17935;51.120;13.132;2023-04-21T02:37:33;234.25;;;65.60;;
31306;SDS011;17935;51.120;13.132;2023-04-21T02:39:59;220.18;;;63.25;;
31306;SDS011;17935;51.120;13.132;2023-04-21T02:42:25;242.32;;;67.88;;
31306;SDS011;17935;51.120;13.132;2023-04-21T02:44:51;218.20;;;63.80;;
31306;SDS011;17935;51.120;13.132;2023-04-21T02:47:17;221.75;;;64.30;;
31306;SDS011;17935;51.120;13.132;2023-04-21T02:49:43;268.20;;;72.53;;
31306;SDS011;17935;51.120;13.132;2023-04-21T02:52:09;253.23;;;71.15;;
31306;SDS011;17935;51.120;13.132;2023-04-21T02:54:35;241.93;;;69.45;;
31306;SDS011;17935;51.120;13.132;2023-04-21T02:57:01;246.57;;;70.85;;
31306;SDS011;17935;51.120;13.132;2023-04-21T02:59:27;250.43;;;72.03;;
31306;SDS011;17935;51.120;13.132;2023-04-21T03:01:53;243.65;;;65.82;;
31306;SDS011;17935;51.120;13.132;2023-04-21T03:04:19;273.55;;;75.20;;
31306;SDS011;17935;51.120;13.132;2023-04-21T03:06:45;298.10;;;82.57;;
31306;SDS011;17935;51.120;13.132;2023-04-21T03:09:10;337.98;;;90.05;;
31306;SDS011;17935;51.120;13.132;2023-04-21T03:11:36;320.02;;;95.18;;
31306;SDS011;17935;51.120;13.132;2023-04-21T03:14:02;314.30;;;95.05;;
31306;SDS011;17935;51.120;13.132;2023-04-21T03:16:28;252.80;;;72.93;;
31306;SDS011;17935;51.120;13.132;2023-04-21T03:18:54;241.82;;;71.97;;
31306;SDS011;17935;51.120;13.132;2023-04-21T03:21:20;262.92;;;78.00;;
31306;SDS011;17935;51.120;13.132;2023-04-21T03:23:46;250.57;;;76.72;;
31306;SDS011;17935;51.120;13.132;2023-04-21T03:26:12;288.77;;;79.95;;
31306;SDS011;17935;51.120;13.132;2023-04-21T03:28:38;341.25;;;87.55;;
31306;SDS011;17935;51.120;13.132;2023-04-21T03:31:04;313.95;;;87.10;;
31306;SDS011;17935;51.120;13.132;2023-04-21T03:33:30;329.02;;;87.45;;
31306;SDS011;17935;51.120;13.132;2023-04-21T03:35:56;331.42;;;87.20;;
31306;SDS011;17935;51.120;13.132;2023-04-21T03:38:22;343.30;;;85.82;;
31306;SDS011;17935;51.120;13.132;2023-04-21T03:40:48;342.20;;;82.88;;
31306;SDS011;17935;51.120;13.132;2023-04-21T03:43:14;296.77;;;78.55;;
31306;SDS011;17935;51.120;13.132;2023-04-21T03:45:40;306.42;;;81.40;;
31306;SDS011;17935;51.120;13.132;2023-04-21T03:48:06;315.33;;;85.22;;
31306;SDS011;17935;51.120;13.132;2023-04-21T03:50:32;355.90;;;88.65;;
31306;SDS011;17935;51.120;13.132;2023-04-21T03:52:58;318.10;;;85.05;;
31306;SDS011;17935;51.120;13.132;2023-04-21T03:55:23;320.38;;;84.13;;
31306;SDS011;17935;51.120;13.132;2023-04-21T03:57:49;298.13;;;77.60;;
31306;SDS011;17935;51.120;13.132;2023-04-21T04:00:15;294.10;;;76.82;;
31306;SDS011;17935;51.120;13.132;2023-04-21T04:02:41;267.35;;;75.07;;
31306;SDS011;17935;51.120;13.132;2023-04-21T04:05:07;256.17;;;73.22;;
31306;SDS011;17935;51.120;13.132;2023-04-21T04:07:33;288.80;;;80.78;;
31306;SDS011;17935;51.120;13.132;2023-04-21T04:09:59;265.98;;;75.47;;
31306;SDS011;17935;51.120;13.132;2023-04-21T04:12:25;268.38;;;73.60;;
31306;SDS011;17935;51.120;13.132;2023-04-21T04:14:51;247.13;;;70.50;;
31306;SDS011;17935;51.120;13.132;2023-04-21T04:17:17;258.23;;;74.63;;
31306;SDS011;17935;51.120;13.132;2023-04-21T04:19:43;262.85;;;73.15;;
31306;SDS011;17935;51.120;13.132;2023-04-21T04:22:09;245.75;;;75.65;;
31306;SDS011;17935;51.120;13.132;2023-04-21T04:24:35;275.35;;;76.53;;
31306;SDS011;17935;51.120;13.132;2023-04-21T04:27:01;295.50;;;81.20;;
31306;SDS011;17935;51.120;13.132;2023-04-21T04:29:27;301.00;;;85.35;;
31306;SDS011;17935;51.120;13.132;2023-04-21T04:31:53;328.05;;;86.32;;
31306;SDS011;17935;51.120;13.132;2023-04-21T04:34:20;306.08;;;85.72;;
31306;SDS011;17935;51.120;13.132;2023-04-21T04:36:47;372.08;;;98.95;;
31306;SDS011;17935;51.120;13.132;2023-04-21T04:39:14;383.73;;;110.90;;
31306;SDS011;17935;51.120;13.132;2023-04-21T04:41:40;399.15;;;114.95;;
31306;SDS011;17935;51.120;13.132;2023-04-21T04:44:06;340.95;;;106.28;;
31306;SDS011;17935;51.120;13.132;2023-04-21T04:46:33;309.85;;;99.32;;
31306;SDS011;17935;51.120;13.132;2023-04-21T04:48:59;246.10;;;85.65;;
31306;SDS011;17935;51.120;13.132;2023-04-21T04:51:25;240.68;;;81.95;;
31306;SDS011;17935;51.120;13.132;2023-04-21T04:53:51;209.13;;;75.85;;
31306;SDS011;17935;51.120;13.132;2023-04-21T04:56:17;217.70;;;77.90;;
31306;SDS011;17935;51.120;13.132;2023-04-21T04:58:43;221.40;;;83.75;;
31306;SDS011;17935;51.120;13.132;2023-04-21T05:01:12;185.18;;;81.25;;
31306;SDS011;17935;51.120;13.132;2023-04-21T05:03:38;131.73;;;67.05;;
31306;SDS011;17935;51.120;13.132;2023-04-21T05:06:04;90.95;;;53.53;;
31306;SDS011;17935;51.120;13.132;2023-04-21T05:08:30;52.45;;;34.15;;
31306;SDS011;17935;51.120;13.132;2023-04-21T05:10:56;45.28;;;29.38;;
31306;SDS011;17935;51.120;13.132;2023-04-21T05:13:22;33.13;;;22.20;;
31306;SDS011;17935;51.120;13.132;2023-04-21T05:15:48;34.22;;;21.23;;
31306;SDS011;17935;51.120;13.132;2023-04-21T05:18:14;28.25;;;20.13;;
31306;SDS011;17935;51.120;13.132;2023-04-21T05:20:40;29.33;;;17.75;;
31306;SDS011;17935;51.120;13.132;2023-04-21T05:23:06;24.98;;;18.30;;
31306;SDS011;17935;51.120;13.132;2023-04-21T05:25:32;30.23;;;17.08;;
31306;SDS011;17935;51.120;13.132;2023-04-21T05:27:58;24.95;;;14.90;;
31306;SDS011;17935;51.120;13.132;2023-04-21T05:30:24;24.67;;;16.00;;
31306;SDS011;17935;51.120;13.132;2023-04-21T05:32:50;25.38;;;14.85;;
31306;SDS011;17935;51.120;13.132;2023-04-21T05:35:16;24.48;;;16.40;;
31306;SDS011;17935;51.120;13.132;2023-04-21T05:37:42;22.17;;;15.23;;
31306;SDS011;17935;51.120;13.132;2023-04-21T05:40:08;22.70;;;15.38;;
31306;SDS011;17935;51.120;13.132;2023-04-21T05:42:34;23.98;;;14.25;;
31306;SDS011;17935;51.120;13.132;2023-04-21T05:45:00;22.50;;;14.10;;
31306;SDS011;17935;51.120;13.132;2023-04-21T05:47:25;22.70;;;14.25;;
31306;SDS011;17935;51.120;13.132;2023-04-21T05:49:51;21.50;;;13.93;;
31306;SDS011;17935;51.120;13.132;2023-04-21T05:52:18;20.60;;;14.57;;
31306;SDS011;17935;51.120;13.132;2023-04-21T05:54:45;17.70;;;12.80;;
31306;SDS011;17935;51.120;13.132;2023-04-21T05:57:11;19.23;;;13.75;;
31306;SDS011;17935;51.120;13.132;2023-04-21T05:59:37;19.02;;;12.25;;
31306;SDS011;17935;51.120;13.132;2023-04-21T06:02:03;20.25;;;12.05;;
31306;SDS011;17935;51.120;13.132;2023-04-21T06:04:29;17.60;;;11.50;;
31306;SDS011;17935;51.120;13.132;2023-04-21T06:06:55;17.60;;;12.48;;
31306;SDS011;17935;51.120;13.132;2023-04-21T06:09:21;14.25;;;10.80;;
31306;SDS011;17935;51.120;13.132;2023-04-21T06:11:47;18.23;;;12.35;;
31306;SDS011;17935;51.120;13.132;2023-04-21T06:14:14;17.27;;;12.05;;
31306;SDS011;17935;51.120;13.132;2023-04-21T06:16:40;20.35;;;11.60;;
31306;SDS011;17935;51.120;13.132;2023-04-21T06:19:06;17.33;;;10.57;;
31306;SDS011;17935;51.120;13.132;2023-04-21T06:21:32;12.90;;;10.10;;
31306;SDS011;17935;51.120;13.132;2023-04-21T06:23:58;16.80;;;9.90;;
31306;SDS011;17935;51.120;13.132;2023-04-21T06:26:23;21.08;;;9.13;;
31306;SDS011;17935;51.120;13.132;2023-04-21T06:28:49;16.92;;;9.13;;
31306;SDS011;17935;51.120;13.132;2023-04-21T06:31:15;17.38;;;7.22;;
31306;SDS011;17935;51.120;13.132;2023-04-21T06:33:43;13.85;;;7.50;;
31306;SDS011;17935;51.120;13.132;2023-04-21T06:36:08;17.58;;;7.20;;
31306;SDS011;17935;51.120;13.132;2023-04-21T06:38:34;13.65;;;7.85;;
31306;SDS011;17935;51.120;13.132;2023-04-21T06:41:00;13.00;;;7.88;;
31306;SDS011;17935;51.120;13.132;2023-04-21T06:43:28;14.13;;;7.82;;
31306;SDS011;17935;51.120;13.132;2023-04-21T06:45:54;16.13;;;7.80;;
31306;SDS011;17935;51.120;13.132;2023-04-21T06:48:20;17.25;;;7.78;;
31306;SDS011;17935;51.120;13.132;2023-04-21T06:50:46;19.90;;;7.47;;
31306;SDS011;17935;51.120;13.132;2023-04-21T06:53:12;11.30;;;6.80;;
31306;SDS011;17935;51.120;13.132;2023-04-21T06:55:38;13.35;;;7.57;;
31306;SDS011;17935;51.120;13.132;2023-04-21T06:58:04;11.55;;;6.57;;
31306;SDS011;17935;51.120;13.132;2023-04-21T07:00:30;15.68;;;7.97;;
31306;SDS011;17935;51.120;13.132;2023-04-21T07:02:55;13.90;;;7.90;;
31306;SDS011;17935;51.120;13.132;2023-04-21T07:05:21;12.63;;;7.35;;
31306;SDS011;17935;51.120;13.132;2023-04-21T07:07:47;19.35;;;9.32;;
31306;SDS011;17935;51.120;13.132;2023-04-21T07:10:13;15.98;;;7.25;;
31306;SDS011;17935;51.120;13.132;2023-04-21T07:12:43;10.10;;;7.13;;
31306;SDS011;17935;51.120;13.132;2023-04-21T07:15:09;10.43;;;6.72;;
31306;SDS011;17935;51.120;13.132;2023-04-21T07:17:35;11.52;;;7.00;;
31306;SDS011;17935;51.120;13.132;2023-04-21T07:20:01;18.25;;;8.40;;
31306;SDS011;17935;51.120;13.132;2023-04-21T07:22:27;13.68;;;7.20;;
31306;SDS011;17935;51.120;13.132;2023-04-21T07:24:53;15.48;;;7.07;;
31306;SDS011;17935;51.120;13.132;2023-04-21T07:27:19;14.20;;;6.93;;
31306;SDS011;17935;51.120;13.132;2023-04-21T07:29:45;16.80;;;6.95;;
31306;SDS011;17935;51.120;13.132;2023-04-21T07:32:11;16.85;;;6.47;;
31306;SDS011;17935;51.120;13.132;2023-04-21T07:34:37;14.95;;;6.65;;
31306;SDS011;17935;51.120;13.132;2023-04-21T07:37:03;15.65;;;6.15;;
31306;SDS011;17935;51.120;13.132;2023-04-21T07:39:28;10.20;;;6.40;;
31306;SDS011;17935;51.120;13.132;2023-04-21T07:41:54;15.35;;;7.25;;
31306;SDS011;17935;51.120;13.132;2023-04-21T07:44:20;8.88;;;5.80;;
31306;SDS011;17935;51.120;13.132;2023-04-21T07:46:46;18.85;;;6.38;;
31306;SDS011;17935;51.120;13.132;2023-04-21T07:49:12;10.32;;;5.88;;
31306;SDS011;17935;51.120;13.132;2023-04-21T07:51:38;8.43;;;5.50;;
31306;SDS011;17935;51.120;13.132;2023-04-21T07:54:04;12.13;;;5.22;;
31306;SDS011;17935;51.120;13.132;2023-04-21T07:56:30;10.85;;;5.00;;
31306;SDS011;17935;51.120;13.132;2023-04-21T07:58:56;14.95;;;5.38;;
31306;SDS011;17935;51.120;13.132;2023-04-21T08:01:22;9.50;;;4.60;;
31306;SDS011;17935;51.120;13.132;2023-04-21T08:03:48;9.13;;;5.13;;
31306;SDS011;17935;51.120;13.132;2023-04-21T08:06:14;12.02;;;5.05;;
31306;SDS011;17935;51.120;13.132;2023-04-21T08:08:40;9.75;;;4.78;;
31306;SDS011;17935;51.120;13.132;2023-04-21T08:11:06;15.80;;;4.25;;
31306;SDS011;17935;51.120;13.132;2023-04-21T08:13:32;16.05;;;5.15;;
31306;SDS011;17935;51.120;13.132;2023-04-21T08:15:57;10.38;;;5.35;;
31306;SDS011;17935;51.120;13.132;2023-04-21T08:18:23;17.55;;;6.32;;
31306;SDS011;17935;51.120;13.132;2023-04-21T08:20:49;13.40;;;4.47;;
31306;SDS011;17935;51.120;13.132;2023-04-21T08:23:16;10.23;;;4.95;;
31306;SDS011;17935;51.120;13.132;2023-04-21T08:25:42;10.23;;;5.00;;
31306;SDS011;17935;51.120;13.132;2023-04-21T08:28:08;10.77;;;4.55;;
31306;SDS011;17935;51.120;13.132;2023-04-21T08:30:34;8.20;;;4.25;;
31306;SDS011;17935;51.120;13.132;2023-04-21T08:33:00;8.68;;;3.67;;
31306;SDS011;17935;51.120;13.132;2023-04-21T08:35:26;13.57;;;4.38;;
31306;SDS011;17935;51.120;13.132;2023-04-21T08:37:52;8.23;;;4.32;;
31306;SDS011;17935;51.120;13.132;2023-04-21T08:40:18;9.45;;;4.75;;
31306;SDS011;17935;51.120;13.132;2023-04-21T08:42:44;9.07;;;4.20;;
31306;SDS011;17935;51.120;13.132;2023-04-21T08:45:10;10.98;;;4.35;;
31306;SDS011;17935;51.120;13.132;2023-04-21T08:47:39;10.30;;;4.55;;
31306;SDS011;17935;51.120;13.132;2023-04-21T08:50:06;18.27;;;4.28;;
31306;SDS011;17935;51.120;13.132;2023-04-21T08:52:36;15.95;;;4.65;;
31306;SDS011;17935;51.120;13.132;2023-04-21T08:55:02;11.13;;;4.30;;
31306;SDS011;17935;51.120;13.132;2023-04-21T08:57:31;13.88;;;4.45;;
31306;SDS011;17935;51.120;13.132;2023-04-21T08:59:57;10.45;;;4.28;;
31306;SDS011;17935;51.120;13.132;2023-04-21T09:02:23;7.95;;;3.88;;
31306;SDS011;17935;51.120;13.132;2023-04-21T09:04:49;13.57;;;4.30;;
31306;SDS011;17935;51.120;13.132;2023-04-21T09:07:35;9.75;;;3.60;;
31306;SDS011;17935;51.120;13.132;2023-04-21T09:10:03;11.45;;;3.92;;
31306;SDS011;17935;51.120;13.132;2023-04-21T09:12:29;18.23;;;3.95;;
31306;SDS011;17935;51.120;13.132;2023-04-21T09:14:55;13.88;;;4.07;;
31306;SDS011;17935;51.120;13.132;2023-04-21T09:17:29;14.98;;;3.20;;
31306;SDS011;17935;51.120;13.132;2023-04-21T09:19:56;11.25;;;3.17;;
31306;SDS011;17935;51.120;13.132;2023-04-21T09:22:25;12.13;;;3.53;;
31306;SDS011;17935;51.120;13.132;2023-04-21T09:24:56;9.93;;;3.63;;
31306;SDS011;17935;51.120;13.132;2023-04-21T09:27:23;24.65;;;3.67;;
31306;SDS011;17935;51.120;13.132;2023-04-21T09:29:49;15.10;;;3.20;;
31306;SDS011;17935;51.120;13.132;2023-04-21T09:32:16;13.07;;;3.65;;
31306;SDS011;17935;51.120;13.132;2023-04-21T09:34:43;9.30;;;2.95;;
31306;SDS011;17935;51.120;13.132;2023-04-21T09:37:09;14.13;;;3.45;;
31306;SDS011;17935;51.120;13.132;2023-04-21T09:39:35;9.82;;;3.15;;
31306;SDS011;17935;51.120;13.132;2023-04-21T09:42:02;10.23;;;3.50;;
31306;SDS011;17935;51.120;13.132;2023-04-21T09:44:28;9.52;;;3.67;;
31306;SDS011;17935;51.120;13.132;2023-04-21T09:46:57;17.85;;;3.58;;
31306;SDS011;17935;51.120;13.132;2023-04-21T09:49:26;5.43;;;3.00;;
31306;SDS011;17935;51.120;13.132;2023-04-21T09:51:54;13.80;;;4.45;;
31306;SDS011;17935;51.120;13.132;2023-04-21T09:54:20;11.25;;;3.70;;
31306;SDS011;17935;51.120;13.132;2023-04-21T09:56:48;7.88;;;2.95;;
31306;SDS011;17935;51.120;13.132;2023-04-21T09:59:16;12.30;;;3.58;;
31306;SDS011;17935;51.120;13.132;2023-04-21T10:01:44;13.55;;;3.47;;
31306;SDS011;17935;51.120;13.132;2023-04-21T10:04:11;11.45;;;2.92;;
31306;SDS011;17935;51.120;13.132;2023-04-21T10:06:37;13.10;;;2.97;;
31306;SDS011;17935;51.120;13.132;2023-04-21T10:09:03;15.63;;;3.30;;
31306;SDS011;17935;51.120;13.132;2023-04-21T10:11:30;13.15;;;3.63;;
31306;SDS011;17935;51.120;13.132;2023-04-21T10:13:58;10.50;;;3.65;;
31306;SDS011;17935;51.120;13.132;2023-04-21T10:16:24;13.95;;;3.88;;
31306;SDS011;17935;51.120;13.132;2023-04-21T10:18:50;9.70;;;3.60;;
31306;SDS011;17935;51.120;13.132;2023-04-21T10:21:17;16.92;;;2.88;;
31306;SDS011;17935;51.120;13.132;2023-04-21T10:23:49;14.57;;;3.63;;
31306;SDS011;17935;51.120;13.132;2023-04-21T10:26:20;10.45;;;3.00;;
31306;SDS011;17935;51.120;13.132;2023-04-21T10:33:41;7.47;;;2.95;;
31306;SDS011;17935;51.120;13.132;2023-04-21T10:36:10;9.10;;;3.15;;
31306;SDS011;17935;51.120;13.132;2023-04-21T10:38:41;10.55;;;3.30;;
31306;SDS011;17935;51.120;13.132;2023-04-21T10:41:27;14.95;;;3.10;;
31306;SDS011;17935;51.120;13.132;2023-04-21T10:43:53;16.02;;;3.33;;
31306;SDS011;17935;51.120;13.132;2023-04-21T10:49:10;11.15;;;3.60;;
31306;SDS011;17935;51.120;13.132;2023-04-21T10:54:21;11.40;;;3.10;;
31306;SDS011;17935;51.120;13.132;2023-04-21T10:56:48;18.45;;;3.25;;
31306;SDS011;17935;51.120;13.132;2023-04-21T10:59:16;7.63;;;2.85;;
31306;SDS011;17935;51.120;13.132;2023-04-21T11:01:42;9.90;;;2.85;;
31306;SDS011;17935;51.120;13.132;2023-04-21T11:04:12;8.68;;;3.17;;
31306;SDS011;17935;51.120;13.132;2023-04-21T11:06:39;13.20;;;3.60;;
31306;SDS011;17935;51.120;13.132;2023-04-21T11:09:05;15.27;;;3.15;;
31306;SDS011;17935;51.120;13.132;2023-04-21T11:11:31;15.82;;;3.35;;
31306;SDS011;17935;51.120;13.132;2023-04-21T11:13:59;9.95;;;3.55;;
31306;SDS011;17935;51.120;13.132;2023-04-21T11:16:25;8.45;;;2.83;;
31306;SDS011;17935;51.120;13.132;2023-04-21T11:18:51;14.88;;;4.13;;
31306;SDS011;17935;51.120;13.132;2023-04-21T11:21:18;8.70;;;2.63;;
31306;SDS011;17935;51.120;13.132;2023-04-21T11:23:49;9.20;;;2.72;;
31306;SDS011;17935;51.120;13.132;2023-04-21T11:26:16;7.65;;;2.80;;
31306;SDS011;17935;51.120;13.132;2023-04-21T11:28:42;16.05;;;3.20;;
31306;SDS011;17935;51.120;13.132;2023-04-21T11:31:08;8.75;;;3.05;;
31306;SDS011;17935;51.120;13.132;2023-04-21T11:33:35;7.68;;;2.78;;
31306;SDS011;17935;51.120;13.132;2023-04-21T11:36:04;10.68;;;2.47;;
31306;SDS011;17935;51.120;13.132;2023-04-21T11:38:37;16.83;;;3.33;;
31306;SDS011;17935;51.120;13.132;2023-04-21T11:41:03;15.13;;;2.85;;
31306;SDS011;17935;51.120;13.132;2023-04-21T11:43:29;11.60;;;3.08;;
31306;SDS011;17935;51.120;13.132;2023-04-21T11:46:09;10.88;;;3.13;;
31306;SDS011;17935;51.120;13.132;2023-04-21T11:48:35;6.72;;;2.65;;
31306;SDS011;17935;51.120;13.132;2023-04-21T11:51:01;15.75;;;3.17;;
31306;SDS011;17935;51.120;13.132;2023-04-21T11:53:28;9.23;;;3.22;;
31306;SDS011;17935;51.120;13.132;2023-04-21T11:55:54;17.80;;;3.50;;
31306;SDS011;17935;51.120;13.132;2023-04-21T11:58:20;9.85;;;3.10;;
31306;SDS011;17935;51.120;13.132;2023-04-21T12:00:46;10.60;;;3.67;;
31306;SDS011;17935;51.120;13.132;2023-04-21T12:03:12;14.13;;;3.78;;
31306;SDS011;17935;51.120;13.132;2023-04-21T12:05:38;12.32;;;3.80;;
31306;SDS011;17935;51.120;13.132;2023-04-21T12:08:04;9.93;;;3.70;;
31306;SDS011;17935;51.120;13.132;2023-04-21T12:10:31;13.00;;;2.67;;
31306;SDS011;17935;51.120;13.132;2023-04-21T12:12:57;15.02;;;4.13;;
31306;SDS011;17935;51.120;13.132;2023-04-21T12:15:23;7.70;;;2.92;;
31306;SDS011;17935;51.120;13.132;2023-04-21T12:17:50;12.27;;;3.17;;
31306;SDS011;17935;51.120;13.132;2023-04-21T12:20:18;10.43;;;3.28;;
31306;SDS011;17935;51.120;13.132;2023-04-21T12:22:44;16.98;;;3.55;;
31306;SDS011;17935;51.120;13.132;2023-04-21T12:25:10;11.75;;;4.50;;
31306;SDS011;17935;51.120;13.132;2023-04-21T12:27:36;5.55;;;2.38;;
31306;SDS011;17935;51.120;13.132;2023-04-21T12:30:02;6.50;;;2.72;;
31306;SDS011;17935;51.120;13.132;2023-04-21T12:32:28;15.93;;;3.30;;
31306;SDS011;17935;51.120;13.132;2023-04-21T12:34:54;15.65;;;3.05;;
31306;SDS011;17935;51.120;13.132;2023-04-21T12:37:20;10.65;;;3.03;;
31306;SDS011;17935;51.120;13.132;2023-04-21T12:39:46;17.27;;;3.00;;
31306;SDS011;17935;51.120;13.132;2023-04-21T12:42:12;10.20;;;3.08;;
31306;SDS011;17935;51.120;13.132;2023-04-21T12:44:38;16.25;;;3.65;;
31306;SDS011;17935;51.120;13.132;2023-04-21T12:47:04;7.15;;;2.85;;
31306;SDS011;17935;51.120;13.132;2023-04-21T12:49:30;8.75;;;2.83;;
31306;SDS011;17935;51.120;13.132;2023-04-21T12:51:56;11.73;;;3.38;;
31306;SDS011;17935;51.120;13.132;2023-04-21T12:54:22;10.23;;;3.67;;
31306;SDS011;17935;51.120;13.132;2023-04-21T12:56:48;9.23;;;2.90;;
31306;SDS011;17935;51.120;13.132;2023-04-21T12:59:14;8.43;;;3.42;;
31306;SDS011;17935;51.120;13.132;2023-04-21T13:01:40;7.00;;;2.90;;
31306;SDS011;17935;51.120;13.132;2023-04-21T13:04:07;9.10;;;2.95;;
31306;SDS011;17935;51.120;13.132;2023-04-21T13:06:33;10.40;;;3.35;;
31306;SDS011;17935;51.120;13.132;2023-04-21T13:08:59;10.00;;;3.10;;
31306;SDS011;17935;51.120;13.132;2023-04-21T13:11:26;9.63;;;4.20;;
31306;SDS011;17935;51.120;13.132;2023-04-21T13:13:51;10.95;;;3.28;;
31306;SDS011;17935;51.120;13.132;2023-04-21T13:16:17;22.85;;;4.40;;
31306;SDS011;17935;51.120;13.132;2023-04-21T13:18:44;9.50;;;3.13;;
31306;SDS011;17935;51.120;13.132;2023-04-21T13:21:11;9.75;;;3.40;;
31306;SDS011;17935;51.120;13.132;2023-04-21T13:23:37;5.32;;;2.63;;
31306;SDS011;17935;51.120;13.132;2023-04-21T13:26:03;10.98;;;2.95;;
31306;SDS011;17935;51.120;13.132;2023-04-21T13:28:29;14.07;;;3.30;;
31306;SDS011;17935;51.120;13.132;2023-04-21T13:30:56;4.18;;;2.92;;
31306;SDS011;17935;51.120;13.132;2023-04-21T13:33:22;8.85;;;3.00;;
31306;SDS011;17935;51.120;13.132;2023-04-21T13:35:47;8.98;;;3.33;;
31306;SDS011;17935;51.120;13.132;2023-04-21T13:38:14;7.93;;;3.17;;
31306;SDS011;17935;51.120;13.132;2023-04-21T13:40:39;4.57;;;2.72;;
31306;SDS011;17935;51.120;13.132;2023-04-21T13:43:05;9.70;;;3.75;;
31306;SDS011;17935;51.120;13.132;2023-04-21T13:45:31;6.95;;;3.10;;
31306;SDS011;17935;51.120;13.132;2023-04-21T13:47:57;7.20;;;3.35;;
31306;SDS011;17935;51.120;13.132;2023-04-21T13:50:23;3.25;;;2.92;;
31306;SDS011;17935;51.120;13.132;2023-04-21T13:52:49;4.40;;;2.55;;
31306;SDS011;17935;51.120;13.132;2023-04-21T13:55:16;9.15;;;3.92;;
31306;SDS011;17935;51.120;13.132;2023-04-21T13:57:42;9.32;;;2.65;;
31306;SDS011;17935;51.120;13.132;2023-04-21T14:00:08;6.90;;;2.92;;
31306;SDS011;17935;51.120;13.132;2023-04-21T14:02:35;6.47;;;2.85;;
31306;SDS011;17935;51.120;13.132;2023-04-21T14:05:01;6.00;;;2.75;;
31306;SDS011;17935;51.120;13.132;2023-04-21T14:07:27;10.98;;;3.40;;
31306;SDS011;17935;51.120;13.132;2023-04-21T14:09:53;8.60;;;3.15;;
31306;SDS011;17935;51.120;13.132;2023-04-21T14:12:19;8.55;;;2.78;;
31306;SDS011;17935;51.120;13.132;2023-04-21T14:14:49;9.65;;;2.92;;
31306;SDS011;17935;51.120;13.132;2023-04-21T14:17:15;7.50;;;3.15;;
31306;SDS011;17935;51.120;13.132;2023-04-21T14:19:41;7.88;;;3.22;;